Annapolis, California
Current Conditions -  °F | °C
As of 7:56 AM on Thursday 30 Oct 2014 (Local Time) from KUKI Reporting Station
Clear Clear  
Wind Chill: 53°   Ceiling: Unl
Heat Index: 53°   Visibility: 10mi
Dew Point: 50°   Wind: 0mph
Humidity: 89%   Direction: NA
Pressure: 29.95"   Gusts: NA
Location:  38.71°N, 123.35°W
Report Text: KUKI 301456Z AUTO 00000KT 10SM CLR 12/10 A2995 RMK AO2 SLP138 T01170100 56005
Loading
Personal Weather Stations






























Interactive Weather Map New forecast layout! Learn more

10-Day Weather Forecast

Advertisements
Track Severe Weather on mobile